sensor_id;sensor_type;location;lat;lon;timestamp;P1;durP1;ratioP1;P2;durP2;ratioP2
22622;SDS011;11478;51.094;7.030;2023-02-26T00:00:31;13.68;;;4.25;;
22622;SDS011;11478;51.094;7.030;2023-02-26T00:02:58;7.80;;;3.97;;
22622;SDS011;11478;51.094;7.030;2023-02-26T00:05:25;10.65;;;3.92;;
22622;SDS011;11478;51.094;7.030;2023-02-26T00:07:53;7.78;;;3.70;;
22622;SDS011;11478;51.094;7.030;2023-02-26T00:10:20;8.63;;;3.92;;
22622;SDS011;11478;51.094;7.030;2023-02-26T00:12:50;8.57;;;4.18;;
22622;SDS011;11478;51.094;7.030;2023-02-26T00:15:17;10.15;;;4.93;;
22622;SDS011;11478;51.094;7.030;2023-02-26T00:20:34;8.40;;;3.90;;
22622;SDS011;11478;51.094;7.030;2023-02-26T00:23:01;9.18;;;3.63;;
22622;SDS011;11478;51.094;7.030;2023-02-26T00:25:35;10.98;;;4.47;;
22622;SDS011;11478;51.094;7.030;2023-02-26T00:30:33;7.90;;;4.07;;
22622;SDS011;11478;51.094;7.030;2023-02-26T00:33:00;10.45;;;4.10;;
22622;SDS011;11478;51.094;7.030;2023-02-26T00:35:27;10.65;;;3.83;;
22622;SDS011;11478;51.094;7.030;2023-02-26T00:47:36;10.38;;;3.83;;
22622;SDS011;11478;51.094;7.030;2023-02-26T00:50:28;11.68;;;3.50;;
22622;SDS011;11478;51.094;7.030;2023-02-26T00:55:26;12.65;;;3.63;;
22622;SDS011;11478;51.094;7.030;2023-02-26T00:57:56;9.40;;;3.33;;
22622;SDS011;11478;51.094;7.030;2023-02-26T01:00:25;11.15;;;3.70;;
22622;SDS011;11478;51.094;7.030;2023-02-26T01:02:52;6.93;;;3.10;;
22622;SDS011;11478;51.094;7.030;2023-02-26T01:05:19;9.60;;;3.25;;
22622;SDS011;11478;51.094;7.030;2023-02-26T01:10:31;10.65;;;3.35;;
22622;SDS011;11478;51.094;7.030;2023-02-26T01:12:58;11.73;;;3.20;;
22622;SDS011;11478;51.094;7.030;2023-02-26T01:15:34;8.02;;;3.22;;
22622;SDS011;11478;51.094;7.030;2023-02-26T01:18:19;9.20;;;3.45;;
22622;SDS011;11478;51.094;7.030;2023-02-26T01:21:21;14.75;;;3.28;;
22622;SDS011;11478;51.094;7.030;2023-02-26T01:23:51;7.22;;;3.20;;
22622;SDS011;11478;51.094;7.030;2023-02-26T01:26:26;8.35;;;3.13;;
22622;SDS011;11478;51.094;7.030;2023-02-26T01:28:53;9.68;;;3.05;;
22622;SDS011;11478;51.094;7.030;2023-02-26T01:34:15;8.70;;;3.03;;
22622;SDS011;11478;51.094;7.030;2023-02-26T01:36:55;6.95;;;2.72;;
22622;SDS011;11478;51.094;7.030;2023-02-26T01:43:07;13.52;;;3.35;;
22622;SDS011;11478;51.094;7.030;2023-02-26T01:46:42;10.25;;;3.25;;
22622;SDS011;11478;51.094;7.030;2023-02-26T01:48:56;10.57;;;3.10;;
22622;SDS011;11478;51.094;7.030;2023-02-26T01:54:34;5.53;;;2.47;;
22622;SDS011;11478;51.094;7.030;2023-02-26T01:57:16;7.05;;;2.75;;
22622;SDS011;11478;51.094;7.030;2023-02-26T01:59:47;8.18;;;3.13;;
22622;SDS011;11478;51.094;7.030;2023-02-26T02:02:20;9.68;;;3.22;;
22622;SDS011;11478;51.094;7.030;2023-02-26T02:04:50;10.90;;;3.03;;
22622;SDS011;11478;51.094;7.030;2023-02-26T02:07:18;7.25;;;2.70;;
22622;SDS011;11478;51.094;7.030;2023-02-26T02:15:23;12.40;;;2.65;;
22622;SDS011;11478;51.094;7.030;2023-02-26T02:18:17;10.93;;;2.58;;
22622;SDS011;11478;51.094;7.030;2023-02-26T02:32:57;5.28;;;2.45;;
22622;SDS011;11478;51.094;7.030;2023-02-26T02:35:34;4.68;;;2.55;;
22622;SDS011;11478;51.094;7.030;2023-02-26T02:38:24;7.32;;;3.10;;
22622;SDS011;11478;51.094;7.030;2023-02-26T02:40:57;10.02;;;2.30;;
22622;SDS011;11478;51.094;7.030;2023-02-26T02:43:32;9.30;;;2.63;;
22622;SDS011;11478;51.094;7.030;2023-02-26T02:46:10;5.40;;;2.20;;
22622;SDS011;11478;51.094;7.030;2023-02-26T02:48:42;8.02;;;2.33;;
22622;SDS011;11478;51.094;7.030;2023-02-26T02:51:18;4.55;;;2.13;;
22622;SDS011;11478;51.094;7.030;2023-02-26T02:57:00;8.10;;;2.38;;
22622;SDS011;11478;51.094;7.030;2023-02-26T02:59:41;6.07;;;2.45;;
22622;SDS011;11478;51.094;7.030;2023-02-26T03:02:18;7.15;;;2.50;;
22622;SDS011;11478;51.094;7.030;2023-02-26T03:04:55;6.47;;;2.50;;
22622;SDS011;11478;51.094;7.030;2023-02-26T03:07:23;6.75;;;2.55;;
22622;SDS011;11478;51.094;7.030;2023-02-26T03:09:49;7.25;;;2.70;;
22622;SDS011;11478;51.094;7.030;2023-02-26T03:12:16;6.20;;;2.50;;
22622;SDS011;11478;51.094;7.030;2023-02-26T03:14:41;9.48;;;2.70;;
22622;SDS011;11478;51.094;7.030;2023-02-26T03:17:10;6.30;;;2.10;;
22622;SDS011;11478;51.094;7.030;2023-02-26T03:19:50;7.78;;;2.60;;
22622;SDS011;11478;51.094;7.030;2023-02-26T03:28:41;10.57;;;2.60;;
22622;SDS011;11478;51.094;7.030;2023-02-26T03:33:58;6.18;;;2.22;;
22622;SDS011;11478;51.094;7.030;2023-02-26T03:36:52;6.63;;;2.20;;
22622;SDS011;11478;51.094;7.030;2023-02-26T03:39:34;5.90;;;2.17;;
22622;SDS011;11478;51.094;7.030;2023-02-26T03:43:07;5.60;;;2.45;;
22622;SDS011;11478;51.094;7.030;2023-02-26T03:45:30;9.23;;;2.80;;
22622;SDS011;11478;51.094;7.030;2023-02-26T03:48:00;7.20;;;2.65;;
22622;SDS011;11478;51.094;7.030;2023-02-26T03:50:36;11.77;;;2.70;;
22622;SDS011;11478;51.094;7.030;2023-02-26T03:53:09;12.02;;;2.50;;
22622;SDS011;11478;51.094;7.030;2023-02-26T03:55:42;12.30;;;2.40;;
22622;SDS011;11478;51.094;7.030;2023-02-26T03:58:13;6.82;;;2.10;;
22622;SDS011;11478;51.094;7.030;2023-02-26T04:00:40;7.45;;;2.58;;
22622;SDS011;11478;51.094;7.030;2023-02-26T04:03:17;7.60;;;2.13;;
22622;SDS011;11478;51.094;7.030;2023-02-26T04:05:57;8.57;;;2.40;;
22622;SDS011;11478;51.094;7.030;2023-02-26T04:08:30;7.20;;;2.17;;
22622;SDS011;11478;51.094;7.030;2023-02-26T04:11:08;12.32;;;2.80;;
22622;SDS011;11478;51.094;7.030;2023-02-26T04:13:53;6.18;;;2.05;;
22622;SDS011;11478;51.094;7.030;2023-02-26T04:19:10;7.30;;;2.20;;
22622;SDS011;11478;51.094;7.030;2023-02-26T04:21:40;6.88;;;2.10;;
22622;SDS011;11478;51.094;7.030;2023-02-26T04:24:07;6.28;;;2.30;;
22622;SDS011;11478;51.094;7.030;2023-02-26T04:26:36;5.85;;;2.30;;
22622;SDS011;11478;51.094;7.030;2023-02-26T04:29:04;7.60;;;2.25;;
22622;SDS011;11478;51.094;7.030;2023-02-26T04:31:34;5.85;;;1.90;;
22622;SDS011;11478;51.094;7.030;2023-02-26T04:34:00;9.20;;;2.40;;
22622;SDS011;11478;51.094;7.030;2023-02-26T04:36:26;6.90;;;2.58;;
22622;SDS011;11478;51.094;7.030;2023-02-26T04:38:53;8.10;;;2.30;;
22622;SDS011;11478;51.094;7.030;2023-02-26T04:41:20;7.75;;;2.05;;
22622;SDS011;11478;51.094;7.030;2023-02-26T04:43:46;6.55;;;2.05;;
22622;SDS011;11478;51.094;7.030;2023-02-26T04:46:15;4.43;;;2.10;;
22622;SDS011;11478;51.094;7.030;2023-02-26T04:48:41;7.25;;;2.10;;
22622;SDS011;11478;51.094;7.030;2023-02-26T04:51:20;5.47;;;1.83;;
22622;SDS011;11478;51.094;7.030;2023-02-26T04:53:46;8.45;;;1.90;;
22622;SDS011;11478;51.094;7.030;2023-02-26T04:56:12;5.07;;;2.10;;
22622;SDS011;11478;51.094;7.030;2023-02-26T04:58:39;4.88;;;2.10;;
22622;SDS011;11478;51.094;7.030;2023-02-26T05:01:06;8.30;;;2.17;;
22622;SDS011;11478;51.094;7.030;2023-02-26T05:03:41;4.53;;;2.08;;
22622;SDS011;11478;51.094;7.030;2023-02-26T05:06:07;8.10;;;2.10;;
22622;SDS011;11478;51.094;7.030;2023-02-26T05:08:40;5.78;;;2.03;;
22622;SDS011;11478;51.094;7.030;2023-02-26T05:11:07;6.20;;;2.00;;
22622;SDS011;11478;51.094;7.030;2023-02-26T05:16:06;4.65;;;1.98;;
22622;SDS011;11478;51.094;7.030;2023-02-26T05:18:35;6.40;;;1.80;;
22622;SDS011;11478;51.094;7.030;2023-02-26T05:21:01;6.53;;;2.03;;
22622;SDS011;11478;51.094;7.030;2023-02-26T05:23:30;7.53;;;2.15;;
22622;SDS011;11478;51.094;7.030;2023-02-26T05:25:59;3.67;;;1.73;;
22622;SDS011;11478;51.094;7.030;2023-02-26T05:31:00;6.20;;;1.90;;
22622;SDS011;11478;51.094;7.030;2023-02-26T05:33:27;5.75;;;1.92;;
22622;SDS011;11478;51.094;7.030;2023-02-26T05:35:53;6.18;;;1.92;;
22622;SDS011;11478;51.094;7.030;2023-02-26T05:40:57;13.05;;;2.60;;
22622;SDS011;11478;51.094;7.030;2023-02-26T05:43:35;7.25;;;2.00;;
22622;SDS011;11478;51.094;7.030;2023-02-26T05:46:01;10.38;;;2.47;;
22622;SDS011;11478;51.094;7.030;2023-02-26T05:48:30;7.05;;;2.10;;
22622;SDS011;11478;51.094;7.030;2023-02-26T05:50:56;10.98;;;2.58;;
22622;SDS011;11478;51.094;7.030;2023-02-26T05:53:23;5.30;;;2.15;;
22622;SDS011;11478;51.094;7.030;2023-02-26T05:55:51;5.78;;;2.15;;
22622;SDS011;11478;51.094;7.030;2023-02-26T05:58:20;8.23;;;2.28;;
22622;SDS011;11478;51.094;7.030;2023-02-26T06:00:48;5.55;;;2.20;;
22622;SDS011;11478;51.094;7.030;2023-02-26T06:03:14;6.53;;;1.92;;
22622;SDS011;11478;51.094;7.030;2023-02-26T06:08:43;9.57;;;2.60;;
22622;SDS011;11478;51.094;7.030;2023-02-26T06:20:13;13.63;;;2.70;;
22622;SDS011;11478;51.094;7.030;2023-02-26T06:22:40;9.68;;;2.80;;
22622;SDS011;11478;51.094;7.030;2023-02-26T06:25:09;10.52;;;2.80;;
22622;SDS011;11478;51.094;7.030;2023-02-26T06:27:35;10.35;;;2.78;;
22622;SDS011;11478;51.094;7.030;2023-02-26T06:30:02;9.65;;;2.70;;
22622;SDS011;11478;51.094;7.030;2023-02-26T06:32:30;7.88;;;2.70;;
22622;SDS011;11478;51.094;7.030;2023-02-26T06:34:57;5.65;;;2.75;;
22622;SDS011;11478;51.094;7.030;2023-02-26T06:37:24;4.80;;;2.40;;
22622;SDS011;11478;51.094;7.030;2023-02-26T06:42:22;9.30;;;3.10;;
22622;SDS011;11478;51.094;7.030;2023-02-26T06:44:50;8.20;;;2.80;;
22622;SDS011;11478;51.094;7.030;2023-02-26T06:47:17;6.40;;;2.88;;
22622;SDS011;11478;51.094;7.030;2023-02-26T06:52:15;8.57;;;3.00;;
22622;SDS011;11478;51.094;7.030;2023-02-26T06:54:48;6.53;;;2.90;;
22622;SDS011;11478;51.094;7.030;2023-02-26T06:57:15;3.33;;;2.35;;
22622;SDS011;11478;51.094;7.030;2023-02-26T06:59:42;5.20;;;2.70;;
22622;SDS011;11478;51.094;7.030;2023-02-26T07:02:12;10.60;;;2.95;;
22622;SDS011;11478;51.094;7.030;2023-02-26T07:04:44;10.00;;;2.97;;
22622;SDS011;11478;51.094;7.030;2023-02-26T07:07:10;5.70;;;3.05;;
22622;SDS011;11478;51.094;7.030;2023-02-26T07:09:37;5.80;;;3.05;;
22622;SDS011;11478;51.094;7.030;2023-02-26T07:12:04;6.90;;;2.88;;
22622;SDS011;11478;51.094;7.030;2023-02-26T07:14:31;7.80;;;2.85;;
22622;SDS011;11478;51.094;7.030;2023-02-26T07:17:12;7.38;;;3.00;;
22622;SDS011;11478;51.094;7.030;2023-02-26T07:19:44;6.32;;;2.65;;
22622;SDS011;11478;51.094;7.030;2023-02-26T07:22:11;6.35;;;2.95;;
22622;SDS011;11478;51.094;7.030;2023-02-26T07:24:37;10.77;;;2.95;;
22622;SDS011;11478;51.094;7.030;2023-02-26T07:27:05;9.65;;;2.72;;
22622;SDS011;11478;51.094;7.030;2023-02-26T07:29:31;8.27;;;2.67;;
22622;SDS011;11478;51.094;7.030;2023-02-26T07:31:58;7.10;;;2.40;;
22622;SDS011;11478;51.094;7.030;2023-02-26T07:34:23;6.60;;;2.45;;
22622;SDS011;11478;51.094;7.030;2023-02-26T07:36:50;8.00;;;2.20;;
22622;SDS011;11478;51.094;7.030;2023-02-26T07:39:17;13.00;;;2.65;;
22622;SDS011;11478;51.094;7.030;2023-02-26T07:41:44;4.13;;;2.13;;
22622;SDS011;11478;51.094;7.030;2023-02-26T07:44:10;7.90;;;2.47;;
22622;SDS011;11478;51.094;7.030;2023-02-26T07:46:36;6.53;;;2.30;;
22622;SDS011;11478;51.094;7.030;2023-02-26T07:49:02;4.85;;;2.42;;
22622;SDS011;11478;51.094;7.030;2023-02-26T07:51:30;10.55;;;2.80;;
22622;SDS011;11478;51.094;7.030;2023-02-26T07:53:58;6.38;;;2.63;;
22622;SDS011;11478;51.094;7.030;2023-02-26T07:56:25;7.53;;;2.33;;
22622;SDS011;11478;51.094;7.030;2023-02-26T07:58:52;5.25;;;2.22;;
22622;SDS011;11478;51.094;7.030;2023-02-26T08:01:19;4.85;;;1.88;;
22622;SDS011;11478;51.094;7.030;2023-02-26T08:03:45;9.18;;;2.45;;
22622;SDS011;11478;51.094;7.030;2023-02-26T08:06:13;6.82;;;2.22;;
22622;SDS011;11478;51.094;7.030;2023-02-26T08:08:49;6.57;;;2.85;;
22622;SDS011;11478;51.094;7.030;2023-02-26T08:11:17;6.00;;;2.40;;
22622;SDS011;11478;51.094;7.030;2023-02-26T08:13:43;8.35;;;2.00;;
22622;SDS011;11478;51.094;7.030;2023-02-26T08:16:10;6.03;;;1.88;;
22622;SDS011;11478;51.094;7.030;2023-02-26T08:18:41;9.20;;;2.30;;
22622;SDS011;11478;51.094;7.030;2023-02-26T08:21:07;3.92;;;2.00;;
22622;SDS011;11478;51.094;7.030;2023-02-26T08:23:35;5.95;;;2.05;;
22622;SDS011;11478;51.094;7.030;2023-02-26T08:26:02;4.57;;;1.98;;
22622;SDS011;11478;51.094;7.030;2023-02-26T08:28:32;4.03;;;2.20;;
22622;SDS011;11478;51.094;7.030;2023-02-26T08:30:58;8.20;;;2.20;;
22622;SDS011;11478;51.094;7.030;2023-02-26T08:33:26;4.57;;;2.13;;
22622;SDS011;11478;51.094;7.030;2023-02-26T08:35:53;6.45;;;2.05;;
22622;SDS011;11478;51.094;7.030;2023-02-26T08:38:28;6.97;;;2.00;;
22622;SDS011;11478;51.094;7.030;2023-02-26T08:40:56;4.72;;;1.90;;
22622;SDS011;11478;51.094;7.030;2023-02-26T08:43:23;5.65;;;2.00;;
22622;SDS011;11478;51.094;7.030;2023-02-26T08:45:51;6.07;;;2.45;;
22622;SDS011;11478;51.094;7.030;2023-02-26T08:48:22;7.20;;;2.15;;
22622;SDS011;11478;51.094;7.030;2023-02-26T08:50:48;6.20;;;2.05;;
22622;SDS011;11478;51.094;7.030;2023-02-26T08:53:18;5.00;;;2.03;;
22622;SDS011;11478;51.094;7.030;2023-02-26T08:55:51;5.03;;;1.70;;
22622;SDS011;11478;51.094;7.030;2023-02-26T09:03:16;5.45;;;2.45;;
22622;SDS011;11478;51.094;7.030;2023-02-26T09:05:41;6.25;;;2.50;;
22622;SDS011;11478;51.094;7.030;2023-02-26T09:08:08;4.65;;;1.70;;
22622;SDS011;11478;51.094;7.030;2023-02-26T09:10:35;4.43;;;1.90;;
22622;SDS011;11478;51.094;7.030;2023-02-26T09:13:19;3.53;;;1.33;;
22622;SDS011;11478;51.094;7.030;2023-02-26T09:21:01;6.10;;;2.50;;
22622;SDS011;11478;51.094;7.030;2023-02-26T09:26:12;5.57;;;1.92;;
22622;SDS011;11478;51.094;7.030;2023-02-26T09:28:43;3.13;;;1.40;;
22622;SDS011;11478;51.094;7.030;2023-02-26T09:31:10;4.88;;;1.75;;
22622;SDS011;11478;51.094;7.030;2023-02-26T09:33:38;3.38;;;1.60;;
22622;SDS011;11478;51.094;7.030;2023-02-26T09:36:05;2.30;;;1.23;;
22622;SDS011;11478;51.094;7.030;2023-02-26T09:38:39;4.88;;;1.55;;
22622;SDS011;11478;51.094;7.030;2023-02-26T09:41:06;2.63;;;1.20;;
22622;SDS011;11478;51.094;7.030;2023-02-26T09:47:19;3.47;;;1.30;;
22622;SDS011;11478;51.094;7.030;2023-02-26T09:50:01;4.00;;;1.40;;
22622;SDS011;11478;51.094;7.030;2023-02-26T09:52:39;2.15;;;1.40;;
22622;SDS011;11478;51.094;7.030;2023-02-26T09:55:36;5.10;;;1.58;;
22622;SDS011;11478;51.094;7.030;2023-02-26T09:58:12;2.80;;;1.30;;
22622;SDS011;11478;51.094;7.030;2023-02-26T10:01:14;2.47;;;1.00;;
22622;SDS011;11478;51.094;7.030;2023-02-26T10:12:23;5.07;;;1.20;;
22622;SDS011;11478;51.094;7.030;2023-02-26T10:21:07;1.63;;;1.10;;
22622;SDS011;11478;51.094;7.030;2023-02-26T10:23:25;5.28;;;1.35;;
22622;SDS011;11478;51.094;7.030;2023-02-26T10:34:43;2.53;;;1.20;;
22622;SDS011;11478;51.094;7.030;2023-02-26T10:43:03;2.53;;;1.02;;
22622;SDS011;11478;51.094;7.030;2023-02-26T10:51:22;5.45;;;1.50;;
22622;SDS011;11478;51.094;7.030;2023-02-26T10:54:03;3.38;;;1.00;;
22622;SDS011;11478;51.094;7.030;2023-02-26T10:56:56;2.63;;;1.40;;
22622;SDS011;11478;51.094;7.030;2023-02-26T10:59:23;4.72;;;1.88;;
22622;SDS011;11478;51.094;7.030;2023-02-26T11:01:52;2.60;;;1.17;;
22622;SDS011;11478;51.094;7.030;2023-02-26T11:04:25;3.50;;;1.02;;
22622;SDS011;11478;51.094;7.030;2023-02-26T11:06:54;3.28;;;1.15;;
22622;SDS011;11478;51.094;7.030;2023-02-26T11:09:30;3.40;;;1.10;;
22622;SDS011;11478;51.094;7.030;2023-02-26T11:12:12;2.50;;;1.13;;
22622;SDS011;11478;51.094;7.030;2023-02-26T11:14:42;2.08;;;0.93;;
22622;SDS011;11478;51.094;7.030;2023-02-26T11:17:24;2.42;;;1.10;;
22622;SDS011;11478;51.094;7.030;2023-02-26T11:20:03;2.47;;;1.30;;
22622;SDS011;11478;51.094;7.030;2023-02-26T11:22:39;3.13;;;1.17;;
22622;SDS011;11478;51.094;7.030;2023-02-26T11:25:13;2.28;;;0.98;;
22622;SDS011;11478;51.094;7.030;2023-02-26T11:30:34;6.00;;;1.17;;
22622;SDS011;11478;51.094;7.030;2023-02-26T11:36:17;3.53;;;1.20;;
22622;SDS011;11478;51.094;7.030;2023-02-26T11:38:45;3.25;;;1.20;;
22622;SDS011;11478;51.094;7.030;2023-02-26T11:41:18;4.05;;;1.05;;
22622;SDS011;11478;51.094;7.030;2023-02-26T11:44:01;3.72;;;1.50;;
22622;SDS011;11478;51.094;7.030;2023-02-26T11:46:51;5.97;;;1.38;;
22622;SDS011;11478;51.094;7.030;2023-02-26T11:49:23;4.75;;;1.30;;
22622;SDS011;11478;51.094;7.030;2023-02-26T11:54:43;3.38;;;1.33;;
22622;SDS011;11478;51.094;7.030;2023-02-26T12:03:05;4.75;;;1.67;;
22622;SDS011;11478;51.094;7.030;2023-02-26T12:05:39;2.55;;;1.10;;
22622;SDS011;11478;51.094;7.030;2023-02-26T12:08:15;3.33;;;1.30;;
22622;SDS011;11478;51.094;7.030;2023-02-26T12:11:06;4.95;;;1.23;;
22622;SDS011;11478;51.094;7.030;2023-02-26T12:16:29;3.88;;;1.17;;
22622;SDS011;11478;51.094;7.030;2023-02-26T12:19:17;5.13;;;1.48;;
22622;SDS011;11478;51.094;7.030;2023-02-26T12:30:46;3.08;;;1.10;;
22622;SDS011;11478;51.094;7.030;2023-02-26T12:36:55;5.57;;;1.55;;
22622;SDS011;11478;51.094;7.030;2023-02-26T12:42:38;4.88;;;1.23;;
22622;SDS011;11478;51.094;7.030;2023-02-26T12:51:26;1.80;;;1.27;;
22622;SDS011;11478;51.094;7.030;2023-02-26T13:19:12;2.05;;;1.45;;
22622;SDS011;11478;51.094;7.030;2023-02-26T13:22:02;1.77;;;1.00;;
22622;SDS011;11478;51.094;7.030;2023-02-26T13:24:44;2.30;;;0.90;;
22622;SDS011;11478;51.094;7.030;2023-02-26T13:27:13;4.05;;;1.20;;
22622;SDS011;11478;51.094;7.030;2023-02-26T13:30:05;3.70;;;1.17;;
22622;SDS011;11478;51.094;7.030;2023-02-26T13:32:49;2.70;;;1.05;;
22622;SDS011;11478;51.094;7.030;2023-02-26T13:35:40;3.00;;;1.23;;
22622;SDS011;11478;51.094;7.030;2023-02-26T13:44:34;2.38;;;1.20;;
22622;SDS011;11478;51.094;7.030;2023-02-26T13:59:23;1.95;;;1.10;;
22622;SDS011;11478;51.094;7.030;2023-02-26T14:02:16;2.28;;;1.25;;
22622;SDS011;11478;51.094;7.030;2023-02-26T14:04:53;2.83;;;1.30;;
22622;SDS011;11478;51.094;7.030;2023-02-26T14:10:17;4.70;;;1.40;;
22622;SDS011;11478;51.094;7.030;2023-02-26T14:12:51;2.17;;;1.13;;
22622;SDS011;11478;51.094;7.030;2023-02-26T14:21:55;2.53;;;0.90;;
22622;SDS011;11478;51.094;7.030;2023-02-26T14:24:44;2.83;;;1.20;;
22622;SDS011;11478;51.094;7.030;2023-02-26T14:30:05;2.85;;;1.05;;
22622;SDS011;11478;51.094;7.030;2023-02-26T14:35:45;2.13;;;1.17;;
22622;SDS011;11478;51.094;7.030;2023-02-26T14:38:22;2.50;;;1.02;;
22622;SDS011;11478;51.094;7.030;2023-02-26T14:41:27;2.47;;;1.15;;
22622;SDS011;11478;51.094;7.030;2023-02-26T14:44:07;1.73;;;1.02;;
22622;SDS011;11478;51.094;7.030;2023-02-26T14:46:56;3.47;;;1.50;;
22622;SDS011;11478;51.094;7.030;2023-02-26T14:49:34;2.60;;;1.20;;
22622;SDS011;11478;51.094;7.030;2023-02-26T14:55:00;1.63;;;0.90;;
22622;SDS011;11478;51.094;7.030;2023-02-26T15:17:15;2.03;;;0.98;;
22622;SDS011;11478;51.094;7.030;2023-02-26T15:20:08;2.97;;;1.17;;
22622;SDS011;11478;51.094;7.030;2023-02-26T15:25:57;2.85;;;1.10;;
22622;SDS011;11478;51.094;7.030;2023-02-26T15:28:32;1.27;;;0.90;;
22622;SDS011;11478;51.094;7.030;2023-02-26T15:31:09;2.40;;;1.08;;
22622;SDS011;11478;51.094;7.030;2023-02-26T15:33:36;1.52;;;0.93;;
22622;SDS011;11478;51.094;7.030;2023-02-26T15:36:15;1.58;;;0.95;;
22622;SDS011;11478;51.094;7.030;2023-02-26T15:39:01;4.20;;;1.27;;
22622;SDS011;11478;51.094;7.030;2023-02-26T15:41:33;2.80;;;0.90;;
22622;SDS011;11478;51.094;7.030;2023-02-26T15:44:01;2.78;;;1.38;;
22622;SDS011;11478;51.094;7.030;2023-02-26T15:46:40;3.85;;;1.20;;
22622;SDS011;11478;51.094;7.030;2023-02-26T15:52:04;1.53;;;1.00;;
22622;SDS011;11478;51.094;7.030;2023-02-26T15:54:47;1.63;;;0.98;;
22622;SDS011;11478;51.094;7.030;2023-02-26T15:57:26;1.65;;;1.15;;
22622;SDS011;11478;51.094;7.030;2023-02-26T16:00:14;1.42;;;0.90;;
22622;SDS011;11478;51.094;7.030;2023-02-26T16:02:48;3.60;;;1.35;;
22622;SDS011;11478;51.094;7.030;2023-02-26T16:05:14;3.05;;;1.45;;
22622;SDS011;11478;51.094;7.030;2023-02-26T16:07:42;5.10;;;1.30;;
22622;SDS011;11478;51.094;7.030;2023-02-26T16:10:31;2.45;;;1.40;;
22622;SDS011;11478;51.094;7.030;2023-02-26T16:13:15;3.10;;;1.05;;
22622;SDS011;11478;51.094;7.030;2023-02-26T16:15:51;4.70;;;1.52;;
22622;SDS011;11478;51.094;7.030;2023-02-26T16:18:21;1.15;;;0.93;;
22622;SDS011;11478;51.094;7.030;2023-02-26T16:20:49;4.72;;;1.30;;
22622;SDS011;11478;51.094;7.030;2023-02-26T16:23:22;2.55;;;1.20;;
22622;SDS011;11478;51.094;7.030;2023-02-26T16:28:33;2.85;;;1.20;;
22622;SDS011;11478;51.094;7.030;2023-02-26T16:31:18;1.70;;;1.33;;
22622;SDS011;11478;51.094;7.030;2023-02-26T16:36:52;3.72;;;1.40;;
22622;SDS011;11478;51.094;7.030;2023-02-26T16:39:33;3.47;;;1.70;;
22622;SDS011;11478;51.094;7.030;2023-02-26T16:42:08;5.55;;;3.05;;
22622;SDS011;11478;51.094;7.030;2023-02-26T16:44:47;2.03;;;1.30;;
22622;SDS011;11478;51.094;7.030;2023-02-26T16:47:35;3.35;;;1.17;;
22622;SDS011;11478;51.094;7.030;2023-02-26T16:50:07;3.22;;;1.13;;
22622;SDS011;11478;51.094;7.030;2023-02-26T16:53:20;2.92;;;1.30;;
22622;SDS011;11478;51.094;7.030;2023-02-26T16:55:54;3.05;;;1.30;;
22622;SDS011;11478;51.094;7.030;2023-02-26T16:58:24;4.45;;;1.20;;
22622;SDS011;11478;51.094;7.030;2023-02-26T17:01:04;2.70;;;1.50;;
22622;SDS011;11478;51.094;7.030;2023-02-26T17:03:33;2.42;;;1.58;;
22622;SDS011;11478;51.094;7.030;2023-02-26T17:06:04;5.35;;;2.10;;
22622;SDS011;11478;51.094;7.030;2023-02-26T17:12:01;5.68;;;3.70;;
22622;SDS011;11478;51.094;7.030;2023-02-26T17:14:32;6.00;;;2.83;;
22622;SDS011;11478;51.094;7.030;2023-02-26T17:19:31;4.60;;;1.70;;
22622;SDS011;11478;51.094;7.030;2023-02-26T17:21:58;3.00;;;1.25;;
22622;SDS011;11478;51.094;7.030;2023-02-26T17:24:36;4.05;;;1.88;;
22622;SDS011;11478;51.094;7.030;2023-02-26T17:27:30;2.65;;;1.50;;
22622;SDS011;11478;51.094;7.030;2023-02-26T17:29:59;5.80;;;1.95;;
22622;SDS011;11478;51.094;7.030;2023-02-26T17:32:28;5.03;;;2.30;;
22622;SDS011;11478;51.094;7.030;2023-02-26T17:34:55;9.18;;;3.90;;
22622;SDS011;11478;51.094;7.030;2023-02-26T17:37:23;6.55;;;3.83;;
22622;SDS011;11478;51.094;7.030;2023-02-26T17:39:54;7.15;;;4.28;;
22622;SDS011;11478;51.094;7.030;2023-02-26T17:42:24;6.47;;;3.38;;
22622;SDS011;11478;51.094;7.030;2023-02-26T17:44:50;4.03;;;2.25;;
22622;SDS011;11478;51.094;7.030;2023-02-26T17:47:20;4.75;;;2.40;;
22622;SDS011;11478;51.094;7.030;2023-02-26T17:49:48;6.30;;;2.05;;
22622;SDS011;11478;51.094;7.030;2023-02-26T17:52:16;4.57;;;2.50;;
22622;SDS011;11478;51.094;7.030;2023-02-26T17:54:43;5.22;;;2.22;;
22622;SDS011;11478;51.094;7.030;2023-02-26T17:57:20;5.47;;;2.20;;
22622;SDS011;11478;51.094;7.030;2023-02-26T17:59:47;3.47;;;1.98;;
22622;SDS011;11478;51.094;7.030;2023-02-26T18:02:20;3.25;;;2.20;;
22622;SDS011;11478;51.094;7.030;2023-02-26T18:04:52;6.90;;;2.60;;
22622;SDS011;11478;51.094;7.030;2023-02-26T18:07:18;5.43;;;2.78;;
22622;SDS011;11478;51.094;7.030;2023-02-26T18:09:51;4.40;;;2.10;;
22622;SDS011;11478;51.094;7.030;2023-02-26T18:12:18;3.33;;;2.30;;
22622;SDS011;11478;51.094;7.030;2023-02-26T18:14:47;10.00;;;3.10;;
22622;SDS011;11478;51.094;7.030;2023-02-26T18:17:15;2.60;;;1.70;;
22622;SDS011;11478;51.094;7.030;2023-02-26T18:19:48;4.10;;;2.20;;
22622;SDS011;11478;51.094;7.030;2023-02-26T18:22:16;4.93;;;2.05;;
22622;SDS011;11478;51.094;7.030;2023-02-26T18:24:43;3.50;;;1.98;;
22622;SDS011;11478;51.094;7.030;2023-02-26T18:27:12;4.50;;;2.05;;
22622;SDS011;11478;51.094;7.030;2023-02-26T18:29:39;4.75;;;2.25;;
22622;SDS011;11478;51.094;7.030;2023-02-26T18:32:21;6.13;;;2.05;;
22622;SDS011;11478;51.094;7.030;2023-02-26T18:34:49;4.32;;;2.28;;
22622;SDS011;11478;51.094;7.030;2023-02-26T18:37:29;6.55;;;2.33;;
22622;SDS011;11478;51.094;7.030;2023-02-26T18:39:55;2.92;;;1.60;;
22622;SDS011;11478;51.094;7.030;2023-02-26T18:42:24;4.13;;;2.20;;
22622;SDS011;11478;51.094;7.030;2023-02-26T18:44:51;5.43;;;2.22;;
22622;SDS011;11478;51.094;7.030;2023-02-26T18:47:19;4.50;;;2.10;;
22622;SDS011;11478;51.094;7.030;2023-02-26T18:49:47;3.15;;;1.90;;
22622;SDS011;11478;51.094;7.030;2023-02-26T18:52:15;6.75;;;4.05;;
22622;SDS011;11478;51.094;7.030;2023-02-26T18:54:42;3.17;;;2.10;;
22622;SDS011;11478;51.094;7.030;2023-02-26T18:57:09;3.47;;;2.38;;
22622;SDS011;11478;51.094;7.030;2023-02-26T18:59:35;3.67;;;2.10;;
22622;SDS011;11478;51.094;7.030;2023-02-26T19:05:13;4.10;;;1.85;;
22622;SDS011;11478;51.094;7.030;2023-02-26T19:07:40;4.80;;;1.65;;
22622;SDS011;11478;51.094;7.030;2023-02-26T19:10:18;4.50;;;1.67;;
22622;SDS011;11478;51.094;7.030;2023-02-26T19:12:46;3.47;;;1.73;;
22622;SDS011;11478;51.094;7.030;2023-02-26T19:15:17;2.95;;;1.75;;
22622;SDS011;11478;51.094;7.030;2023-02-26T19:17:44;3.95;;;2.20;;
22622;SDS011;11478;51.094;7.030;2023-02-26T19:20:16;3.92;;;2.22;;
22622;SDS011;11478;51.094;7.030;2023-02-26T19:22:43;3.40;;;1.45;;
22622;SDS011;11478;51.094;7.030;2023-02-26T19:25:17;2.25;;;1.92;;
22622;SDS011;11478;51.094;7.030;2023-02-26T19:27:48;4.60;;;2.40;;
22622;SDS011;11478;51.094;7.030;2023-02-26T19:30:24;5.22;;;2.15;;
22622;SDS011;11478;51.094;7.030;2023-02-26T19:32:50;5.43;;;2.35;;
22622;SDS011;11478;51.094;7.030;2023-02-26T19:35:19;5.78;;;2.65;;
22622;SDS011;11478;51.094;7.030;2023-02-26T19:37:47;4.90;;;2.70;;
22622;SDS011;11478;51.094;7.030;2023-02-26T19:40:24;6.07;;;2.72;;
22622;SDS011;11478;51.094;7.030;2023-02-26T19:42:52;5.78;;;3.10;;
22622;SDS011;11478;51.094;7.030;2023-02-26T19:45:21;6.03;;;3.30;;
22622;SDS011;11478;51.094;7.030;2023-02-26T19:47:50;5.28;;;3.42;;
22622;SDS011;11478;51.094;7.030;2023-02-26T19:50:18;8.07;;;3.90;;
22622;SDS011;11478;51.094;7.030;2023-02-26T19:52:44;6.43;;;3.63;;
22622;SDS011;11478;51.094;7.030;2023-02-26T19:58:34;5.20;;;3.33;;
22622;SDS011;11478;51.094;7.030;2023-02-26T20:01:01;6.82;;;3.38;;